Bethel, ME (04217)

12:02 AM EDT on March 25, 2017 (GMT -0400)
Church Street | | Change Station

Elev 731 ft 44.40 °N, 70.79 °W | Updated 8 minutes ago

Overcast
Overcast
28.8 °F
Feels Like 29 °F
N
0.6
Wind Variable Wind from West
Gusts 1.2 mph

Today
High -- | Low -- °F
--% Chance of Precip.
Yesterday
High -- | Low -- °F
Precip. -- in
Pressure 30.08 in
Visibility 2.5 miles
Clouds Mostly Cloudy 800 ft
Overcast 1700 ft
Windchill 29 °F
Dew Point 26 °F
Humidity 89%
Rainfall 0.18 in
Snow Depth Not available.
6:36 AM 7:02 PM
Waning Crescent, 11% visible
METAR KBML 250352Z AUTO 00000KT 2 1/2SM -SN BR BKN008 OVC017 M02/M03 A3003 RMK AO2 SNB25 SLP185 P0000 T10171033
Pressure 30.08 in
Visibility 2.5 miles
Clouds Mostly Cloudy 800 ft
Overcast 1700 ft
Windchill 29 °F
Dew Point 26 °F
Humidity 89%
Rainfall 0.18 in
Snow Depth Not available.
6:36 AM 7:02 PM
Waning Crescent, 11% visible
METAR KBML 250352Z AUTO 00000KT 2 1/2SM -SN BR BKN008 OVC017 M02/M03 A3003 RMK AO2 SNB25 SLP185 P0000 T10171033

Get Severe Weather Alerts

Thanks for signing up!

Be on the lookout for a verification email in your inbox.

You'll start receiving the daily forecast at 8 AM.

×

10-Day Weather Forecast

Almanac

Astronomy

Mar. 25, 2017 Rise Set
Actual Time
Civil Twilight
Nautical Twilight
Astronomical Twilight
Moon
Length of Visible Light
Length of Day
Tomorrow will be .
, % of the Moon is Illuminated

Today's Extremes

State Highs State Lows

Community

WunderPhotos

Upload Photos

1,962,540 photos uploaded!

WunderBlog® & News

Nearby

Air Quality

  Air Quality AQ Index Pollutant
Not available.

Snow Depth

Station Depth Elevation

Earthquake Activity

City Distance Mag. Time & Date
Minimum magnitude displayed is 2.5.

Earthquake Activity

City Distance Mag. Time & Date
Minimum magnitude displayed is 2.5.

Coastal Water Temperatures

Place Temperature

Stations

Nearby Weather Stations

Station Location Temp. Windchill Dew Point Humidity Wind Precip. Elev Updated Type
                   

Watches & Warnings

There are currently no watches in effect.